createdAt,value
2023-01-24T00:01:46.629Z,35.20
2023-01-24T00:04:14.742Z,30.60
2023-01-24T00:06:43.054Z,29.60
2023-01-24T00:09:12.711Z,32.00
2023-01-24T00:11:40.980Z,26.60
2023-01-24T00:14:09.125Z,34.20
2023-01-24T00:16:37.269Z,28.20
2023-01-24T00:19:05.440Z,30.40
2023-01-24T00:21:33.648Z,23.20
2023-01-24T00:24:01.850Z,28.20
2023-01-24T00:26:31.481Z,29.80
2023-01-24T00:29:00.207Z,28.80
2023-01-24T00:31:28.487Z,28.60
2023-01-24T00:33:57.059Z,29.40
2023-01-24T00:36:25.351Z,29.40
2023-01-24T00:38:53.638Z,26.20
2023-01-24T00:41:21.836Z,31.40
2023-01-24T00:43:51.573Z,36.00
2023-01-24T00:46:19.774Z,39.40
2023-01-24T00:48:50.847Z,34.80
2023-01-24T00:51:19.529Z,20.60
2023-01-24T00:53:47.711Z,33.00
2023-01-24T00:56:15.942Z,24.40
2023-01-24T00:58:44.105Z,27.60
2023-01-24T01:01:13.709Z,31.60
2023-01-24T01:03:41.862Z,32.40
2023-01-24T01:06:13.175Z,22.80
2023-01-24T01:08:41.397Z,34.40
2023-01-24T01:11:09.773Z,41.20
2023-01-24T01:13:37.961Z,32.00
2023-01-24T01:16:07.174Z,33.00
2023-01-24T01:18:37.233Z,27.60
2023-01-24T01:21:06.563Z,33.40
2023-01-24T01:23:35.127Z,26.00
2023-01-24T01:26:04.968Z,21.40
2023-01-24T01:28:33.573Z,26.80
2023-01-24T01:31:01.822Z,21.00
2023-01-24T01:33:30.062Z,35.00
2023-01-24T01:35:59.640Z,31.40
2023-01-24T01:38:29.088Z,34.80
2023-01-24T01:40:57.516Z,33.40
2023-01-24T01:43:26.579Z,25.40
2023-01-24T01:45:55.354Z,43.80
2023-01-24T01:48:26.048Z,37.20
2023-01-24T01:50:57.927Z,40.00
2023-01-24T01:53:29.770Z,40.20
2023-01-24T01:56:00.805Z,41.80
2023-01-24T01:58:29.746Z,43.40
2023-01-24T02:00:58.029Z,33.60
2023-01-24T02:03:41.032Z,36.40
2023-01-24T02:06:20.769Z,34.60
2023-01-24T02:08:51.425Z,25.80
2023-01-24T02:11:37.175Z,34.00
2023-01-24T02:14:23.270Z,28.80
2023-01-24T02:16:51.561Z,33.40
2023-01-24T02:19:26.170Z,31.60
2023-01-24T02:21:57.375Z,23.80
2023-01-24T02:24:31.932Z,34.80
2023-01-24T02:27:01.893Z,33.00
2023-01-24T02:29:30.395Z,33.40
2023-01-24T02:31:59.390Z,31.80
2023-01-24T02:34:28.822Z,24.40
2023-01-24T02:36:59.110Z,25.80
2023-01-24T02:39:28.836Z,33.40
2023-01-24T02:41:59.462Z,35.00
2023-01-24T02:44:31.781Z,27.20
2023-01-24T02:47:00.008Z,33.80
2023-01-24T02:49:28.466Z,32.60
2023-01-24T02:52:14.015Z,34.00
2023-01-24T02:54:42.829Z,19.00
2023-01-24T02:57:28.655Z,30.60
2023-01-24T02:59:58.526Z,32.20
2023-01-24T03:02:27.824Z,31.60
2023-01-24T03:04:56.939Z,13.80
2023-01-24T03:07:26.204Z,32.20
2023-01-24T03:09:59.529Z,32.80
2023-01-24T03:12:48.441Z,33.80
2023-01-24T03:15:35.495Z,30.60
2023-01-24T03:18:20.982Z,29.60
2023-01-24T03:21:07.269Z,40.80
2023-01-24T03:23:52.944Z,30.40
2023-01-24T03:26:38.400Z,38.60
2023-01-24T03:29:25.015Z,30.20
2023-01-24T03:32:12.245Z,36.60
2023-01-24T03:34:50.344Z,35.80
2023-01-24T03:37:38.012Z,35.20
2023-01-24T03:40:07.744Z,42.20
2023-01-24T03:42:36.074Z,32.20
2023-01-24T03:45:04.371Z,34.80
2023-01-24T03:47:34.068Z,31.00
2023-01-24T03:50:19.594Z,31.80
2023-01-24T03:52:47.756Z,19.40
2023-01-24T03:55:16.657Z,35.00
2023-01-24T03:57:46.812Z,32.60
2023-01-24T04:00:17.431Z,18.60
2023-01-24T04:02:46.909Z,27.20
2023-01-24T04:05:22.139Z,28.00
2023-01-24T04:07:50.644Z,21.40
2023-01-24T04:10:19.245Z,34.40
2023-01-24T04:12:50.759Z,28.40
2023-01-24T04:15:21.130Z,35.80
2023-01-24T04:17:58.643Z,33.40
2023-01-24T04:20:28.377Z,31.00
2023-01-24T04:22:57.316Z,39.20
2023-01-24T04:25:26.810Z,41.80
2023-01-24T04:27:54.985Z,50.20
2023-01-24T04:30:26.670Z,39.00
2023-01-24T04:32:58.948Z,29.00
2023-01-24T04:35:29.004Z,32.40
2023-01-24T04:38:02.107Z,26.20
2023-01-24T04:41:02.902Z,23.60
2023-01-24T04:43:38.599Z,27.20
2023-01-24T04:46:07.155Z,31.80
2023-01-24T04:49:03.161Z,24.80
2023-01-24T04:51:43.059Z,32.20
2023-01-24T04:54:15.775Z,32.60
2023-01-24T04:56:44.345Z,27.00
2023-01-24T04:59:13.606Z,34.20
2023-01-24T05:01:44.901Z,36.80
2023-01-24T05:04:26.164Z,34.00
2023-01-24T05:06:54.535Z,33.00
2023-01-24T05:09:24.161Z,30.80
2023-01-24T05:11:59.412Z,33.20
2023-01-24T05:14:27.756Z,42.60
2023-01-24T05:16:57.157Z,31.40
2023-01-24T05:19:28.443Z,30.00
2023-01-24T05:21:58.882Z,31.20
2023-01-24T05:24:27.378Z,21.40
2023-01-24T05:26:56.089Z,31.00
2023-01-24T05:29:27.598Z,33.60
2023-01-24T05:32:00.373Z,25.80
2023-01-24T05:34:30.172Z,25.00
2023-01-24T05:36:58.772Z,25.00
2023-01-24T05:39:27.435Z,30.00
2023-01-24T05:41:55.789Z,24.20
2023-01-24T05:44:26.843Z,30.60
2023-01-24T05:46:55.575Z,33.20
2023-01-24T05:49:30.466Z,30.00
2023-01-24T05:51:59.537Z,25.80
2023-01-24T05:54:43.857Z,23.20
2023-01-24T05:57:25.057Z,21.80
2023-01-24T06:00:13.963Z,33.00
2023-01-24T06:03:03.342Z,31.00
2023-01-24T06:05:33.145Z,21.20
2023-01-24T06:08:01.418Z,28.80
2023-01-24T06:10:30.830Z,33.80
2023-01-24T06:13:11.530Z,23.20
2023-01-24T06:15:40.385Z,32.00
2023-01-24T06:18:15.062Z,26.20
2023-01-24T06:20:46.917Z,31.40
2023-01-24T06:23:25.033Z,34.00
2023-01-24T06:25:56.755Z,37.80
2023-01-24T06:28:25.241Z,35.20
2023-01-24T06:30:58.936Z,37.20
2023-01-24T06:33:34.772Z,36.40
2023-01-24T06:36:12.363Z,12.00
2023-01-24T06:38:40.912Z,30.80
2023-01-24T06:41:15.743Z,30.40
2023-01-24T06:43:44.219Z,33.60
2023-01-24T06:46:12.921Z,29.80
2023-01-24T06:48:41.229Z,26.20
2023-01-24T06:51:12.397Z,24.60
2023-01-24T06:53:40.713Z,28.00
2023-01-24T06:56:09.681Z,35.40
2023-01-24T06:58:38.001Z,39.80
2023-01-24T07:01:06.462Z,27.80
2023-01-24T07:03:34.748Z,40.00
2023-01-24T07:06:02.931Z,32.20
2023-01-24T07:08:32.503Z,30.40
2023-01-24T07:11:00.934Z,33.60
2023-01-24T07:13:29.267Z,45.00
2023-01-24T07:15:57.505Z,51.80
2023-01-24T07:18:25.973Z,37.00
2023-01-24T07:20:54.368Z,45.00
2023-01-24T07:23:24.427Z,44.60
2023-01-24T07:25:54.600Z,39.00
2023-01-24T07:28:22.889Z,42.00
2023-01-24T07:30:51.342Z,41.00
2023-01-24T07:33:19.605Z,44.20
2023-01-24T07:35:47.965Z,39.40
2023-01-24T07:38:16.161Z,36.40
2023-01-24T07:40:45.381Z,37.80
2023-01-24T07:43:15.492Z,36.00
2023-01-24T07:45:47.163Z,38.40
2023-01-24T07:48:15.465Z,30.60
2023-01-24T07:50:43.709Z,13.80
2023-01-24T07:53:11.806Z,21.80
2023-01-24T07:55:41.158Z,35.20
2023-01-24T07:58:10.559Z,36.60
2023-01-24T08:00:40.162Z,36.40
2023-01-24T08:03:08.259Z,35.20
2023-01-24T08:05:38.539Z,42.20
2023-01-24T08:08:07.159Z,33.60
2023-01-24T08:10:35.421Z,33.40
2023-01-24T08:13:03.802Z,34.40
2023-01-24T08:15:31.917Z,36.80
2023-01-24T08:18:03.461Z,34.80
2023-01-24T08:20:32.826Z,32.20
2023-01-24T08:23:01.031Z,21.60
2023-01-24T08:25:31.431Z,32.40
2023-01-24T08:27:59.744Z,27.60
2023-01-24T08:30:28.006Z,30.75
2023-01-24T08:33:04.987Z,33.80
2023-01-24T08:35:33.681Z,27.75
2023-01-24T08:38:01.914Z,31.00
2023-01-24T08:40:37.839Z,25.00
2023-01-24T08:43:09.695Z,27.20
2023-01-24T08:45:37.809Z,33.40
2023-01-24T08:48:07.548Z,38.20
2023-01-24T08:50:36.006Z,41.80
2023-01-24T08:53:04.235Z,40.20
2023-01-24T08:55:32.443Z,35.00
2023-01-24T08:58:04.454Z,37.60
2023-01-24T09:00:32.919Z,25.00
2023-01-24T09:03:02.207Z,32.20
2023-01-24T09:05:32.494Z,37.00
2023-01-24T09:08:01.823Z,33.60
2023-01-24T09:10:30.449Z,32.80
2023-01-24T09:13:00.611Z,43.80
2023-01-24T09:23:53.755Z,28.80
2023-01-24T09:26:22.267Z,29.80
2023-01-24T09:28:51.028Z,44.00
2023-01-24T09:31:19.338Z,39.40
2023-01-24T09:33:58.959Z,44.60
2023-01-24T09:36:28.987Z,14.60
2023-01-24T09:39:06.693Z,45.20
2023-01-24T09:41:42.950Z,35.00
2023-01-24T09:44:14.435Z,40.80
2023-01-24T09:46:44.626Z,38.00
2023-01-24T09:49:17.800Z,42.00
2023-01-24T09:51:48.230Z,39.40
2023-01-24T09:54:22.310Z,42.80
2023-01-24T09:56:51.674Z,41.60
2023-01-24T09:59:22.703Z,33.60
2023-01-24T10:01:51.979Z,37.60
2023-01-24T10:04:23.193Z,41.60
2023-01-24T10:07:04.571Z,39.20
2023-01-24T10:09:43.254Z,41.40
2023-01-24T10:12:18.816Z,28.00
2023-01-24T10:14:52.584Z,39.40
2023-01-24T10:17:30.017Z,33.40
2023-01-24T10:20:10.381Z,35.20
2023-01-24T10:22:48.069Z,33.40
2023-01-24T10:25:22.061Z,45.20
2023-01-24T10:27:53.220Z,47.60
2023-01-24T10:30:25.385Z,40.60
2023-01-24T10:32:59.205Z,45.20
2023-01-24T10:35:31.229Z,44.40
2023-01-24T10:38:02.791Z,43.20
2023-01-24T10:40:32.524Z,41.00
2023-01-24T10:43:06.257Z,39.20
2023-01-24T10:45:42.572Z,40.00
2023-01-24T10:48:16.266Z,45.40
2023-01-24T10:50:45.895Z,38.40
2023-01-24T10:53:15.562Z,38.40
2023-01-24T10:55:59.614Z,30.20
2023-01-24T10:58:29.408Z,24.25
2023-01-24T11:00:59.207Z,27.00
2023-01-24T11:03:29.255Z,26.00
2023-01-24T11:05:58.873Z,27.80
2023-01-24T11:08:28.197Z,23.25
2023-01-24T11:10:59.880Z,22.50
2023-01-24T11:13:31.092Z,29.50
2023-01-24T11:16:04.080Z,22.75
2023-01-24T11:18:33.168Z,27.50
2023-01-24T11:21:13.251Z,28.80
2023-01-24T11:23:41.965Z,24.00
2023-01-24T11:26:23.540Z,28.00
2023-01-24T11:28:58.531Z,27.75
2023-01-24T11:31:30.959Z,30.40
2023-01-24T11:34:15.718Z,35.20
2023-01-24T11:36:48.398Z,30.20
2023-01-24T11:39:24.528Z,29.20
2023-01-24T11:41:59.048Z,29.20
2023-01-24T11:44:42.313Z,26.50
2023-01-24T11:47:14.856Z,28.20
2023-01-24T11:49:51.464Z,25.00
2023-01-24T11:52:46.569Z,34.00
2023-01-24T11:55:19.341Z,30.00
2023-01-24T11:57:53.906Z,27.80
2023-01-24T12:00:26.906Z,27.50
2023-01-24T12:03:06.202Z,29.60
2023-01-24T12:05:39.394Z,24.00
2023-01-24T12:08:17.403Z,18.20
2023-01-24T12:11:03.784Z,26.40
2023-01-24T12:13:47.607Z,24.80
2023-01-24T12:16:21.454Z,25.00
2023-01-24T12:19:05.391Z,19.00
2023-01-24T12:21:33.702Z,25.25
2023-01-24T12:24:03.788Z,27.60
2023-01-24T12:26:33.777Z,28.80
2023-01-24T12:29:08.236Z,22.80
2023-01-24T12:31:41.877Z,25.00
2023-01-24T12:34:16.295Z,22.00
2023-01-24T12:36:49.429Z,23.25
2023-01-24T12:39:21.505Z,27.80
2023-01-24T12:41:54.543Z,24.50
2023-01-24T12:44:30.308Z,25.00
2023-01-24T12:47:07.447Z,24.75
2023-01-24T12:49:45.096Z,24.40
2023-01-24T12:52:19.848Z,27.80
2023-01-24T12:54:51.109Z,28.00
2023-01-24T12:57:24.136Z,23.00
2023-01-24T12:59:54.061Z,25.40
2023-01-24T13:02:39.599Z,11.80
2023-01-24T13:05:18.488Z,36.40
2023-01-24T13:07:54.908Z,31.00
2023-01-24T13:10:26.303Z,31.20
2023-01-24T13:12:55.650Z,35.60
2023-01-24T13:15:27.928Z,42.40
2023-01-24T13:18:02.974Z,40.00
2023-01-24T13:20:41.952Z,40.80
2023-01-24T13:23:26.989Z,38.20
2023-01-24T13:26:12.957Z,35.80
2023-01-24T13:28:51.662Z,42.20
2023-01-24T13:31:25.088Z,36.20
2023-01-24T13:33:55.635Z,32.20
2023-01-24T13:36:34.702Z,23.60
2023-01-24T13:39:03.480Z,31.75
2023-01-24T13:41:37.765Z,25.20
2023-01-24T13:44:06.827Z,25.75
2023-01-24T13:47:08.404Z,14.25
2023-01-24T13:49:47.212Z,18.00
2023-01-24T13:52:30.488Z,15.75
2023-01-24T13:54:59.236Z,23.60
2023-01-24T13:57:28.454Z,13.00
2023-01-24T14:00:18.183Z,18.40
2023-01-24T14:02:59.504Z,18.25
2023-01-24T14:05:37.423Z,11.00
2023-01-24T14:08:16.276Z,11.00
2023-01-24T14:10:47.788Z,14.00
2023-01-24T14:13:31.050Z,14.40
2023-01-24T14:15:59.499Z,14.20
2023-01-24T14:18:46.813Z,16.00
2023-01-24T14:21:18.587Z,10.75
2023-01-24T14:23:49.225Z,6.50
2023-01-24T14:26:19.865Z,13.50
2023-01-24T14:28:51.283Z,10.00
2023-01-24T14:31:22.224Z,18.00
2023-01-24T14:33:55.199Z,9.50
2023-01-24T14:36:30.178Z,12.25
2023-01-24T14:39:14.753Z,14.40
2023-01-24T14:41:43.603Z,13.50
2023-01-24T14:44:22.935Z,15.00
2023-01-24T14:46:55.165Z,9.50
2023-01-24T14:49:34.610Z,9.50
2023-01-24T14:52:18.591Z,10.50
2023-01-24T14:54:48.729Z,9.80
2023-01-24T14:57:21.558Z,13.75
2023-01-24T15:00:00.662Z,12.00
2023-01-24T15:02:29.541Z,8.25
2023-01-24T15:04:57.995Z,12.25
2023-01-24T15:07:29.415Z,13.80
2023-01-24T15:09:58.605Z,12.00
2023-01-24T15:12:32.022Z,12.00
2023-01-24T15:15:03.893Z,10.40
2023-01-24T15:17:33.792Z,9.50
2023-01-24T15:20:08.928Z,12.50
2023-01-24T15:22:39.407Z,8.00
2023-01-24T15:25:19.849Z,12.50
2023-01-24T15:27:48.386Z,12.00
2023-01-24T15:30:18.952Z,12.75
2023-01-24T15:32:48.542Z,14.80
2023-01-24T15:35:22.925Z,11.60
2023-01-24T15:38:04.275Z,6.40
2023-01-24T15:40:34.166Z,8.60
2023-01-24T15:43:29.110Z,12.75
2023-01-24T15:46:18.385Z,16.40
2023-01-24T15:48:57.053Z,15.40
2023-01-24T15:51:29.790Z,14.60
2023-01-24T15:53:59.929Z,10.00
2023-01-24T15:56:35.378Z,15.75
2023-01-24T15:59:04.537Z,14.75
2023-01-24T16:01:34.471Z,15.50
2023-01-24T16:04:12.227Z,10.75
2023-01-24T16:06:40.463Z,13.80
2023-01-24T16:09:13.446Z,13.00
2023-01-24T16:11:43.202Z,12.80
2023-01-24T16:14:15.218Z,14.20
2023-01-24T16:16:44.028Z,13.50
2023-01-24T16:19:15.823Z,16.80
2023-01-24T16:21:44.397Z,9.20
2023-01-24T16:24:14.234Z,16.80
2023-01-24T16:26:43.830Z,16.50
2023-01-24T16:29:14.569Z,15.60
2023-01-24T16:31:43.055Z,8.80
2023-01-24T16:34:11.539Z,15.20
2023-01-24T16:36:40.348Z,9.20
2023-01-24T16:39:09.029Z,9.80
2023-01-24T16:41:38.857Z,12.80
2023-01-24T16:44:07.550Z,12.00
2023-01-24T16:46:36.064Z,9.80
2023-01-24T16:49:04.522Z,18.40
2023-01-24T16:51:32.867Z,10.00
2023-01-24T16:54:01.390Z,9.60
2023-01-24T16:56:30.073Z,7.00
2023-01-24T16:58:59.927Z,14.20
2023-01-24T17:01:31.071Z,15.40
2023-01-24T17:03:59.623Z,15.80
2023-01-24T17:06:28.513Z,15.40
2023-01-24T17:08:57.140Z,12.00
2023-01-24T17:11:26.125Z,12.25
2023-01-24T17:13:54.673Z,13.50
2023-01-24T17:16:24.558Z,18.00
2023-01-24T17:18:53.317Z,12.00
2023-01-24T17:21:22.010Z,14.50
2023-01-24T17:23:50.808Z,12.25
2023-01-24T17:26:19.517Z,10.50
2023-01-24T17:28:47.927Z,15.25
2023-01-24T17:31:17.400Z,10.20
2023-01-24T17:33:47.735Z,19.20
2023-01-24T17:36:18.295Z,12.80
2023-01-24T17:38:47.817Z,14.50
2023-01-24T17:41:16.512Z,14.50
2023-01-24T17:43:52.516Z,13.00
2023-01-24T17:46:22.077Z,16.80
2023-01-24T17:48:52.871Z,15.00
2023-01-24T17:51:21.359Z,13.00
2023-01-24T17:53:49.918Z,15.50
2023-01-24T17:56:19.501Z,18.50
2023-01-24T17:58:48.060Z,17.50
2023-01-24T18:01:16.831Z,16.00
2023-01-24T18:03:45.817Z,16.00
2023-01-24T18:06:17.861Z,16.00
2023-01-24T18:08:47.783Z,17.20
2023-01-24T18:11:17.665Z,15.25
2023-01-24T18:13:45.985Z,16.00
2023-01-24T18:16:16.283Z,18.00
2023-01-24T18:18:44.797Z,11.50
2023-01-24T18:21:17.842Z,15.75
2023-01-24T18:23:51.353Z,9.00
2023-01-24T18:26:22.237Z,18.40
2023-01-24T18:28:51.073Z,19.40
2023-01-24T18:31:21.265Z,20.00
2023-01-24T18:33:54.500Z,13.00
2023-01-24T18:36:23.698Z,19.50
2023-01-24T18:38:53.906Z,18.75
2023-01-24T18:41:23.950Z,20.25
2023-01-24T18:43:52.811Z,21.00
2023-01-24T18:46:21.281Z,19.80
2023-01-24T18:48:49.850Z,19.40
2023-01-24T18:51:19.285Z,23.20
2023-01-24T18:53:48.567Z,20.80
2023-01-24T18:56:18.972Z,18.00
2023-01-24T18:58:47.718Z,26.20
2023-01-24T19:03:46.245Z,22.00
2023-01-24T19:06:15.299Z,27.80
2023-01-24T19:09:01.372Z,27.60
2023-01-24T19:11:33.287Z,22.40
2023-01-24T19:14:03.391Z,24.20
2023-01-24T19:16:32.027Z,26.20
2023-01-24T19:19:00.395Z,18.80
2023-01-24T19:21:32.285Z,24.60
2023-01-24T19:24:01.371Z,15.20
2023-01-24T19:26:30.039Z,17.60
2023-01-24T19:29:00.523Z,21.60
2023-01-24T19:31:29.446Z,24.40
2023-01-24T19:33:57.912Z,19.00
2023-01-24T19:36:26.704Z,18.50
2023-01-24T19:38:56.393Z,23.00
2023-01-24T19:41:25.683Z,20.20
2023-01-24T19:46:43.571Z,18.50
2023-01-24T19:49:12.178Z,19.00
2023-01-24T19:51:40.506Z,11.00
2023-01-24T19:54:08.739Z,18.00
2023-01-24T19:56:37.765Z,18.25
2023-01-24T19:59:06.394Z,20.40
2023-01-24T20:01:35.024Z,21.25
2023-01-24T20:06:53.718Z,24.00
2023-01-24T20:09:22.313Z,22.00
2023-01-24T20:11:51.850Z,21.75
2023-01-24T20:14:20.251Z,20.00
2023-01-24T20:16:52.673Z,19.00
2023-01-24T20:19:28.483Z,21.75
2023-01-24T20:21:58.109Z,15.75
2023-01-24T20:24:26.528Z,19.80
2023-01-24T20:26:55.169Z,21.00
2023-01-24T20:29:23.414Z,19.00
2023-01-24T20:31:51.833Z,20.20
2023-01-24T20:34:20.359Z,21.00
2023-01-24T20:36:50.158Z,13.00
2023-01-24T20:39:19.498Z,21.00
2023-01-24T20:41:47.758Z,14.50
2023-01-24T20:44:26.298Z,15.75
2023-01-24T20:46:55.352Z,18.00
2023-01-24T20:49:23.840Z,12.25
2023-01-24T20:51:53.984Z,16.00
2023-01-24T20:54:23.126Z,6.00
2023-01-24T20:56:56.638Z,15.75
2023-01-24T20:59:25.132Z,11.50
2023-01-24T21:01:53.669Z,14.00
2023-01-24T21:04:22.255Z,16.25
2023-01-24T21:06:51.442Z,9.00
2023-01-24T21:09:22.230Z,15.75
2023-01-24T21:11:51.366Z,12.75
2023-01-24T21:14:22.978Z,16.25
2023-01-24T21:16:51.708Z,15.25
2023-01-24T21:19:20.981Z,13.00
2023-01-24T21:21:50.200Z,12.25
2023-01-24T21:24:32.188Z,13.50
2023-01-24T21:27:03.377Z,14.60
2023-01-24T21:29:36.310Z,15.00
2023-01-24T21:32:04.559Z,9.50
2023-01-24T21:34:32.829Z,12.75
2023-01-24T21:37:01.053Z,8.50
2023-01-24T21:39:29.246Z,8.25
2023-01-24T21:41:56.795Z,14.50
2023-01-24T21:44:27.703Z,12.00
2023-01-24T21:46:55.931Z,11.00
2023-01-24T21:49:24.136Z,7.50
2023-01-24T21:51:53.787Z,11.00
2023-01-24T21:54:23.008Z,11.25
2023-01-24T21:57:20.484Z,10.00
2023-01-24T21:59:58.020Z,9.50
2023-01-24T22:02:27.272Z,12.50
2023-01-24T22:04:55.837Z,11.25
2023-01-24T22:07:24.947Z,12.00
2023-01-24T22:09:53.709Z,14.75
2023-01-24T22:12:21.877Z,10.75
2023-01-24T22:14:50.189Z,11.50
2023-01-24T22:17:20.707Z,10.25
2023-01-24T22:19:49.530Z,12.25
2023-01-24T22:22:27.160Z,8.50
2023-01-24T22:25:01.644Z,12.25
2023-01-24T22:27:31.491Z,12.00
2023-01-24T22:29:59.977Z,11.50
2023-01-24T22:32:30.079Z,12.75
2023-01-24T22:34:58.500Z,7.50
2023-01-24T22:37:29.244Z,9.00
2023-01-24T22:39:57.630Z,12.00
2023-01-24T22:42:26.156Z,8.50
2023-01-24T22:44:54.506Z,11.00
2023-01-24T22:47:22.594Z,12.00
2023-01-24T22:49:53.536Z,8.50
2023-01-24T22:52:21.671Z,12.00
2023-01-24T22:54:49.940Z,13.00
2023-01-24T22:57:18.167Z,11.50
2023-01-24T22:59:46.256Z,13.50
2023-01-24T23:02:14.357Z,10.50
2023-01-24T23:04:42.633Z,10.00
2023-01-24T23:07:12.456Z,13.40
2023-01-24T23:09:40.587Z,11.50
2023-01-24T23:12:28.838Z,9.50
2023-01-24T23:15:14.276Z,12.00
2023-01-24T23:17:42.866Z,13.00
2023-01-24T23:20:29.030Z,10.00
2023-01-24T23:22:58.563Z,13.00
2023-01-24T23:25:27.379Z,7.00
2023-01-24T23:27:55.852Z,6.50
2023-01-24T23:30:41.485Z,13.00
2023-01-24T23:33:24.349Z,11.80
2023-01-24T23:35:52.489Z,8.00
2023-01-24T23:38:22.104Z,6.40
2023-01-24T23:40:50.257Z,10.00
2023-01-24T23:43:18.574Z,7.00
2023-01-24T23:45:46.792Z,7.00
2023-01-24T23:48:14.870Z,16.00
2023-01-24T23:50:43.069Z,14.00
2023-01-24T23:53:11.262Z,14.60
2023-01-24T23:55:45.512Z,11.50
2023-01-24T23:58:13.646Z,8.00
